sensor_id;sensor_type;location;lat;lon;timestamp;temperature;humidity
60848;DHT22;46681;47.696;9.140;2023-02-28T00:01:29;7.80;44.00
60848;DHT22;46681;47.696;9.140;2023-02-28T00:03:56;7.80;44.00
60848;DHT22;46681;47.696;9.140;2023-02-28T00:06:22;7.80;44.00
60848;DHT22;46681;47.696;9.140;2023-02-28T00:08:48;7.80;44.00
60848;DHT22;46681;47.696;9.140;2023-02-28T00:11:15;7.80;43.90
60848;DHT22;46681;47.696;9.140;2023-02-28T00:13:50;7.80;43.90
60848;DHT22;46681;47.696;9.140;2023-02-28T00:16:21;7.80;44.00
60848;DHT22;46681;47.696;9.140;2023-02-28T00:18:48;7.80;43.90
60848;DHT22;46681;47.696;9.140;2023-02-28T00:21:15;7.80;44.00
60848;DHT22;46681;47.696;9.140;2023-02-28T00:23:41;7.80;44.00
60848;DHT22;46681;47.696;9.140;2023-02-28T00:26:10;7.80;43.90
60848;DHT22;46681;47.696;9.140;2023-02-28T00:28:39;7.80;44.00
60848;DHT22;46681;47.696;9.140;2023-02-28T00:31:05;7.80;43.90
60848;DHT22;46681;47.696;9.140;2023-02-28T00:33:30;7.80;43.80
60848;DHT22;46681;47.696;9.140;2023-02-28T00:36:09;7.80;43.90
60848;DHT22;46681;47.696;9.140;2023-02-28T00:38:35;7.80;43.80
60848;DHT22;46681;47.696;9.140;2023-02-28T00:41:02;7.80;43.80
60848;DHT22;46681;47.696;9.140;2023-02-28T00:43:27;7.80;43.80
60848;DHT22;46681;47.696;9.140;2023-02-28T00:45:53;7.80;43.80
60848;DHT22;46681;47.696;9.140;2023-02-28T00:48:20;7.80;43.80
60848;DHT22;46681;47.696;9.140;2023-02-28T00:50:48;7.90;43.80
60848;DHT22;46681;47.696;9.140;2023-02-28T00:53:14;7.90;43.80
60848;DHT22;46681;47.696;9.140;2023-02-28T00:55:40;7.90;43.80
60848;DHT22;46681;47.696;9.140;2023-02-28T00:58:06;7.90;43.70
60848;DHT22;46681;47.696;9.140;2023-02-28T01:00:32;7.90;43.70
60848;DHT22;46681;47.696;9.140;2023-02-28T01:02:58;7.90;43.70
60848;DHT22;46681;47.696;9.140;2023-02-28T01:05:25;7.90;43.80
60848;DHT22;46681;47.696;9.140;2023-02-28T01:07:52;7.90;43.70
60848;DHT22;46681;47.696;9.140;2023-02-28T01:10:18;7.90;43.80
60848;DHT22;46681;47.696;9.140;2023-02-28T01:12:46;7.90;44.20
60848;DHT22;46681;47.696;9.140;2023-02-28T01:15:11;7.90;44.20
60848;DHT22;46681;47.696;9.140;2023-02-28T01:17:37;7.90;43.70
60848;DHT22;46681;47.696;9.140;2023-02-28T01:20:04;7.90;43.70
60848;DHT22;46681;47.696;9.140;2023-02-28T01:22:30;7.90;43.60
60848;DHT22;46681;47.696;9.140;2023-02-28T01:24:57;7.90;43.70
60848;DHT22;46681;47.696;9.140;2023-02-28T01:27:23;7.90;43.60
60848;DHT22;46681;47.696;9.140;2023-02-28T01:29:50;8.00;43.60
60848;DHT22;46681;47.696;9.140;2023-02-28T01:32:17;7.90;43.60
60848;DHT22;46681;47.696;9.140;2023-02-28T01:34:43;7.90;43.60
60848;DHT22;46681;47.696;9.140;2023-02-28T01:37:09;7.90;43.60
60848;DHT22;46681;47.696;9.140;2023-02-28T01:39:38;7.90;43.60
60848;DHT22;46681;47.696;9.140;2023-02-28T01:42:04;7.90;43.60
60848;DHT22;46681;47.696;9.140;2023-02-28T01:44:57;7.90;43.60
60848;DHT22;46681;47.696;9.140;2023-02-28T01:47:24;8.00;43.60
60848;DHT22;46681;47.696;9.140;2023-02-28T01:49:51;7.90;43.60
60848;DHT22;46681;47.696;9.140;2023-02-28T01:52:17;8.00;43.60
60848;DHT22;46681;47.696;9.140;2023-02-28T01:54:50;8.00;43.50
60848;DHT22;46681;47.696;9.140;2023-02-28T01:57:19;8.00;43.60
60848;DHT22;46681;47.696;9.140;2023-02-28T02:02:43;8.00;43.50
60848;DHT22;46681;47.696;9.140;2023-02-28T02:05:17;8.00;43.50
60848;DHT22;46681;47.696;9.140;2023-02-28T02:07:46;7.90;43.50
60848;DHT22;46681;47.696;9.140;2023-02-28T02:10:15;7.90;43.60
60848;DHT22;46681;47.696;9.140;2023-02-28T02:12:54;7.90;43.60
60848;DHT22;46681;47.696;9.140;2023-02-28T02:15:35;7.90;43.50
60848;DHT22;46681;47.696;9.140;2023-02-28T02:23:51;8.00;43.50
60848;DHT22;46681;47.696;9.140;2023-02-28T02:29:00;8.00;43.50
60848;DHT22;46681;47.696;9.140;2023-02-28T02:34:58;7.90;43.40
60848;DHT22;46681;47.696;9.140;2023-02-28T02:37:42;7.90;43.40
60848;DHT22;46681;47.696;9.140;2023-02-28T02:45:24;7.90;43.40
60848;DHT22;46681;47.696;9.140;2023-02-28T02:47:52;7.90;43.40
60848;DHT22;46681;47.696;9.140;2023-02-28T02:50:31;7.90;43.40
60848;DHT22;46681;47.696;9.140;2023-02-28T02:53:01;8.00;43.40
60848;DHT22;46681;47.696;9.140;2023-02-28T02:55:30;8.00;43.40
60848;DHT22;46681;47.696;9.140;2023-02-28T02:58:04;7.90;43.40
60848;DHT22;46681;47.696;9.140;2023-02-28T03:00:38;7.90;43.40
60848;DHT22;46681;47.696;9.140;2023-02-28T03:03:09;7.90;43.40
60848;DHT22;46681;47.696;9.140;2023-02-28T03:05:47;8.00;43.40
60848;DHT22;46681;47.696;9.140;2023-02-28T03:08:14;7.90;43.30
60848;DHT22;46681;47.696;9.140;2023-02-28T03:10:41;7.90;43.40
60848;DHT22;46681;47.696;9.140;2023-02-28T03:25:05;7.90;43.30
60848;DHT22;46681;47.696;9.140;2023-02-28T03:33:27;7.90;43.20
60848;DHT22;46681;47.696;9.140;2023-02-28T03:36:09;7.90;43.20
60848;DHT22;46681;47.696;9.140;2023-02-28T03:39:06;7.90;43.20
60848;DHT22;46681;47.696;9.140;2023-02-28T03:42:01;7.90;43.30
60848;DHT22;46681;47.696;9.140;2023-02-28T03:44:45;7.90;43.20
60848;DHT22;46681;47.696;9.140;2023-02-28T03:47:26;7.90;43.30
60848;DHT22;46681;47.696;9.140;2023-02-28T03:49:59;7.90;43.30
60848;DHT22;46681;47.696;9.140;2023-02-28T03:52:32;7.90;43.30
60848;DHT22;46681;47.696;9.140;2023-02-28T03:55:04;7.90;43.20
60848;DHT22;46681;47.696;9.140;2023-02-28T04:00:25;7.90;43.20
60848;DHT22;46681;47.696;9.140;2023-02-28T04:03:03;7.90;43.20
60848;DHT22;46681;47.696;9.140;2023-02-28T04:05:32;7.90;43.20
60848;DHT22;46681;47.696;9.140;2023-02-28T04:08:08;7.90;43.20
60848;DHT22;46681;47.696;9.140;2023-02-28T04:10:37;7.90;43.20
60848;DHT22;46681;47.696;9.140;2023-02-28T04:13:10;7.90;43.20
60848;DHT22;46681;47.696;9.140;2023-02-28T04:15:36;7.90;43.10
60848;DHT22;46681;47.696;9.140;2023-02-28T04:18:04;7.90;43.10
60848;DHT22;46681;47.696;9.140;2023-02-28T04:20:35;7.90;43.10
60848;DHT22;46681;47.696;9.140;2023-02-28T04:23:07;7.90;43.00
60848;DHT22;46681;47.696;9.140;2023-02-28T04:25:32;7.90;43.00
60848;DHT22;46681;47.696;9.140;2023-02-28T04:27:58;8.00;43.10
60848;DHT22;46681;47.696;9.140;2023-02-28T04:30:24;8.00;43.00
60848;DHT22;46681;47.696;9.140;2023-02-28T04:32:51;8.00;43.00
60848;DHT22;46681;47.696;9.140;2023-02-28T04:35:16;8.00;43.00
60848;DHT22;46681;47.696;9.140;2023-02-28T04:37:42;8.00;43.00
60848;DHT22;46681;47.696;9.140;2023-02-28T04:40:08;8.00;42.90
60848;DHT22;46681;47.696;9.140;2023-02-28T04:42:34;8.00;42.90
60848;DHT22;46681;47.696;9.140;2023-02-28T04:45:04;8.00;43.00
60848;DHT22;46681;47.696;9.140;2023-02-28T04:47:30;8.00;43.00
60848;DHT22;46681;47.696;9.140;2023-02-28T04:49:56;8.00;42.90
60848;DHT22;46681;47.696;9.140;2023-02-28T04:52:24;8.00;42.80
60848;DHT22;46681;47.696;9.140;2023-02-28T04:54:49;8.00;42.90
60848;DHT22;46681;47.696;9.140;2023-02-28T04:57:16;8.00;42.80
60848;DHT22;46681;47.696;9.140;2023-02-28T04:59:42;8.00;42.80
60848;DHT22;46681;47.696;9.140;2023-02-28T05:02:08;8.00;42.80
60848;DHT22;46681;47.696;9.140;2023-02-28T05:04:36;8.00;42.80
60848;DHT22;46681;47.696;9.140;2023-02-28T05:07:03;8.00;42.70
60848;DHT22;46681;47.696;9.140;2023-02-28T05:09:34;8.00;42.70
60848;DHT22;46681;47.696;9.140;2023-02-28T05:11:59;8.00;42.70
60848;DHT22;46681;47.696;9.140;2023-02-28T05:14:26;8.10;42.70
60848;DHT22;46681;47.696;9.140;2023-02-28T05:16:54;8.00;42.70
60848;DHT22;46681;47.696;9.140;2023-02-28T05:19:20;8.00;42.70
60848;DHT22;46681;47.696;9.140;2023-02-28T05:22:03;8.10;42.70
60848;DHT22;46681;47.696;9.140;2023-02-28T05:24:29;8.10;42.70
60848;DHT22;46681;47.696;9.140;2023-02-28T05:26:55;8.10;42.70
60848;DHT22;46681;47.696;9.140;2023-02-28T05:29:21;8.10;42.70
60848;DHT22;46681;47.696;9.140;2023-02-28T05:31:48;8.10;42.60
60848;DHT22;46681;47.696;9.140;2023-02-28T05:34:17;8.20;42.80
60848;DHT22;46681;47.696;9.140;2023-02-28T05:36:46;8.20;42.70
60848;DHT22;46681;47.696;9.140;2023-02-28T05:39:13;8.30;42.60
60848;DHT22;46681;47.696;9.140;2023-02-28T05:41:41;8.30;42.50
60848;DHT22;46681;47.696;9.140;2023-02-28T05:44:08;8.30;42.40
60848;DHT22;46681;47.696;9.140;2023-02-28T05:46:34;8.30;42.40
60848;DHT22;46681;47.696;9.140;2023-02-28T05:49:02;8.40;42.40
60848;DHT22;46681;47.696;9.140;2023-02-28T05:51:27;8.40;42.40
60848;DHT22;46681;47.696;9.140;2023-02-28T05:53:59;8.40;42.30
60848;DHT22;46681;47.696;9.140;2023-02-28T05:56:27;8.40;42.30
60848;DHT22;46681;47.696;9.140;2023-02-28T05:58:55;8.40;42.20
60848;DHT22;46681;47.696;9.140;2023-02-28T06:04:05;8.40;42.20
60848;DHT22;46681;47.696;9.140;2023-02-28T06:06:33;8.40;42.20
60848;DHT22;46681;47.696;9.140;2023-02-28T06:09:02;8.40;42.20
60848;DHT22;46681;47.696;9.140;2023-02-28T06:11:32;8.40;42.20
60848;DHT22;46681;47.696;9.140;2023-02-28T06:14:15;8.30;42.10
60848;DHT22;46681;47.696;9.140;2023-02-28T06:16:50;8.30;42.20
60848;DHT22;46681;47.696;9.140;2023-02-28T06:19:17;8.30;42.20
60848;DHT22;46681;47.696;9.140;2023-02-28T06:21:43;8.30;42.20
60848;DHT22;46681;47.696;9.140;2023-02-28T06:24:10;8.20;42.20
60848;DHT22;46681;47.696;9.140;2023-02-28T06:26:36;8.20;42.30
60848;DHT22;46681;47.696;9.140;2023-02-28T06:29:02;8.10;42.30
60848;DHT22;46681;47.696;9.140;2023-02-28T06:31:32;8.10;42.30
60848;DHT22;46681;47.696;9.140;2023-02-28T06:33:58;8.10;42.30
60848;DHT22;46681;47.696;9.140;2023-02-28T06:36:24;8.10;42.30
60848;DHT22;46681;47.696;9.140;2023-02-28T06:38:49;8.10;42.30
60848;DHT22;46681;47.696;9.140;2023-02-28T06:41:15;8.10;42.30
60848;DHT22;46681;47.696;9.140;2023-02-28T06:43:44;8.10;42.30
60848;DHT22;46681;47.696;9.140;2023-02-28T06:46:16;8.00;42.30
60848;DHT22;46681;47.696;9.140;2023-02-28T06:48:45;8.00;42.20
60848;DHT22;46681;47.696;9.140;2023-02-28T06:51:21;8.10;43.00
60848;DHT22;46681;47.696;9.140;2023-02-28T06:53:49;8.10;42.70
60848;DHT22;46681;47.696;9.140;2023-02-28T06:56:18;8.00;42.60
60848;DHT22;46681;47.696;9.140;2023-02-28T06:58:52;7.90;42.50
60848;DHT22;46681;47.696;9.140;2023-02-28T07:01:23;8.00;42.60
60848;DHT22;46681;47.696;9.140;2023-02-28T07:03:49;8.00;42.60
60848;DHT22;46681;47.696;9.140;2023-02-28T07:06:18;8.00;42.60
60848;DHT22;46681;47.696;9.140;2023-02-28T07:08:46;8.00;42.50
60848;DHT22;46681;47.696;9.140;2023-02-28T07:11:15;8.00;42.50
60848;DHT22;46681;47.696;9.140;2023-02-28T07:13:43;8.00;42.50
60848;DHT22;46681;47.696;9.140;2023-02-28T07:16:13;8.00;42.50
60848;DHT22;46681;47.696;9.140;2023-02-28T07:18:40;8.00;42.50
60848;DHT22;46681;47.696;9.140;2023-02-28T07:21:10;8.00;42.40
60848;DHT22;46681;47.696;9.140;2023-02-28T07:23:42;8.20;44.90
60848;DHT22;46681;47.696;9.140;2023-02-28T07:26:12;8.20;43.60
60848;DHT22;46681;47.696;9.140;2023-02-28T07:28:43;8.10;43.00
60848;DHT22;46681;47.696;9.140;2023-02-28T07:31:10;8.10;42.80
60848;DHT22;46681;47.696;9.140;2023-02-28T07:33:45;8.10;42.70
60848;DHT22;46681;47.696;9.140;2023-02-28T07:36:17;8.20;42.70
60848;DHT22;46681;47.696;9.140;2023-02-28T07:38:51;8.20;42.60
60848;DHT22;46681;47.696;9.140;2023-02-28T07:41:22;8.10;42.50
60848;DHT22;46681;47.696;9.140;2023-02-28T07:43:53;8.10;42.50
60848;DHT22;46681;47.696;9.140;2023-02-28T07:46:19;8.20;42.50
60848;DHT22;46681;47.696;9.140;2023-02-28T07:48:46;8.10;42.50
60848;DHT22;46681;47.696;9.140;2023-02-28T07:51:13;8.20;42.50
60848;DHT22;46681;47.696;9.140;2023-02-28T07:53:47;8.20;42.40
60848;DHT22;46681;47.696;9.140;2023-02-28T07:56:15;8.20;42.40
60848;DHT22;46681;47.696;9.140;2023-02-28T07:58:40;8.20;42.40
60848;DHT22;46681;47.696;9.140;2023-02-28T08:01:11;8.10;42.30
60848;DHT22;46681;47.696;9.140;2023-02-28T08:03:42;8.20;42.40
60848;DHT22;46681;47.696;9.140;2023-02-28T08:06:21;8.20;42.40
60848;DHT22;46681;47.696;9.140;2023-02-28T08:08:48;8.20;42.40
60848;DHT22;46681;47.696;9.140;2023-02-28T08:11:18;8.20;42.30
60848;DHT22;46681;47.696;9.140;2023-02-28T08:13:45;8.20;42.30
60848;DHT22;46681;47.696;9.140;2023-02-28T08:16:18;8.20;42.30
60848;DHT22;46681;47.696;9.140;2023-02-28T08:18:44;8.20;42.30
60848;DHT22;46681;47.696;9.140;2023-02-28T08:21:12;8.20;42.20
60848;DHT22;46681;47.696;9.140;2023-02-28T08:23:40;8.30;42.20
60848;DHT22;46681;47.696;9.140;2023-02-28T08:26:12;8.30;42.20
60848;DHT22;46681;47.696;9.140;2023-02-28T08:28:45;8.30;42.60
60848;DHT22;46681;47.696;9.140;2023-02-28T08:31:16;8.30;42.10
60848;DHT22;46681;47.696;9.140;2023-02-28T08:33:45;8.30;42.10
60848;DHT22;46681;47.696;9.140;2023-02-28T08:36:17;8.30;42.10
60848;DHT22;46681;47.696;9.140;2023-02-28T08:38:43;8.30;42.10
60848;DHT22;46681;47.696;9.140;2023-02-28T08:41:14;8.30;42.10
60848;DHT22;46681;47.696;9.140;2023-02-28T08:43:41;8.30;42.10
60848;DHT22;46681;47.696;9.140;2023-02-28T08:46:08;8.40;42.10
60848;DHT22;46681;47.696;9.140;2023-02-28T08:48:36;8.40;42.10
60848;DHT22;46681;47.696;9.140;2023-02-28T08:51:08;8.40;42.10
60848;DHT22;46681;47.696;9.140;2023-02-28T08:53:41;8.40;42.10
60848;DHT22;46681;47.696;9.140;2023-02-28T08:56:15;8.40;42.10
60848;DHT22;46681;47.696;9.140;2023-02-28T08:58:48;8.40;42.00
60848;DHT22;46681;47.696;9.140;2023-02-28T09:01:18;8.40;42.00
60848;DHT22;46681;47.696;9.140;2023-02-28T09:03:48;8.40;42.00
60848;DHT22;46681;47.696;9.140;2023-02-28T09:06:20;8.50;42.00
60848;DHT22;46681;47.696;9.140;2023-02-28T09:08:51;8.40;41.90
60848;DHT22;46681;47.696;9.140;2023-02-28T09:11:22;8.50;42.00
60848;DHT22;46681;47.696;9.140;2023-02-28T09:13:51;8.50;42.00
60848;DHT22;46681;47.696;9.140;2023-02-28T09:16:17;8.50;41.90
60848;DHT22;46681;47.696;9.140;2023-02-28T09:18:44;8.50;42.00
60848;DHT22;46681;47.696;9.140;2023-02-28T09:21:16;8.50;42.00
60848;DHT22;46681;47.696;9.140;2023-02-28T09:23:43;8.50;42.00
60848;DHT22;46681;47.696;9.140;2023-02-28T09:26:21;8.50;41.90
60848;DHT22;46681;47.696;9.140;2023-02-28T09:28:50;8.50;42.00
60848;DHT22;46681;47.696;9.140;2023-02-28T09:31:24;8.50;41.90
60848;DHT22;46681;47.696;9.140;2023-02-28T09:33:54;8.50;41.80
60848;DHT22;46681;47.696;9.140;2023-02-28T09:36:27;8.50;41.90
60848;DHT22;46681;47.696;9.140;2023-02-28T09:38:58;8.50;41.90
60848;DHT22;46681;47.696;9.140;2023-02-28T09:41:32;8.60;41.90
60848;DHT22;46681;47.696;9.140;2023-02-28T09:44:15;8.60;41.80
60848;DHT22;46681;47.696;9.140;2023-02-28T09:46:59;8.60;41.80
60848;DHT22;46681;47.696;9.140;2023-02-28T09:49:49;8.70;41.80
60848;DHT22;46681;47.696;9.140;2023-02-28T09:52:29;8.70;41.80
60848;DHT22;46681;47.696;9.140;2023-02-28T09:57:52;8.70;41.70
60848;DHT22;46681;47.696;9.140;2023-02-28T10:00:35;8.70;41.70
60848;DHT22;46681;47.696;9.140;2023-02-28T10:08:28;8.80;41.70
60848;DHT22;46681;47.696;9.140;2023-02-28T10:11:02;8.80;41.70
60848;DHT22;46681;47.696;9.140;2023-02-28T10:16:13;8.90;41.70
60848;DHT22;46681;47.696;9.140;2023-02-28T10:18:56;8.90;41.70
60848;DHT22;46681;47.696;9.140;2023-02-28T10:24:39;8.90;41.70
60848;DHT22;46681;47.696;9.140;2023-02-28T10:27:19;8.90;41.70
60848;DHT22;46681;47.696;9.140;2023-02-28T10:29:55;9.00;42.10
60848;DHT22;46681;47.696;9.140;2023-02-28T10:32:35;9.00;41.70
60848;DHT22;46681;47.696;9.140;2023-02-28T10:35:24;9.00;41.70
60848;DHT22;46681;47.696;9.140;2023-02-28T10:37:58;9.00;41.60
60848;DHT22;46681;47.696;9.140;2023-02-28T10:40:34;9.00;41.60
60848;DHT22;46681;47.696;9.140;2023-02-28T10:48:43;9.10;41.70
60848;DHT22;46681;47.696;9.140;2023-02-28T10:51:16;9.10;41.70
60848;DHT22;46681;47.696;9.140;2023-02-28T10:56:24;9.10;41.60
60848;DHT22;46681;47.696;9.140;2023-02-28T10:59:31;9.20;41.60
60848;DHT22;46681;47.696;9.140;2023-02-28T11:01:50;9.20;41.60
60848;DHT22;46681;47.696;9.140;2023-02-28T11:04:33;9.20;41.60
60848;DHT22;46681;47.696;9.140;2023-02-28T11:07:19;9.20;41.60
60848;DHT22;46681;47.696;9.140;2023-02-28T11:09:53;9.20;41.50
60848;DHT22;46681;47.696;9.140;2023-02-28T11:12:34;9.20;41.50
60848;DHT22;46681;47.696;9.140;2023-02-28T11:15:26;9.20;41.60
60848;DHT22;46681;47.696;9.140;2023-02-28T11:20:35;9.20;41.60
60848;DHT22;46681;47.696;9.140;2023-02-28T11:23:04;9.20;41.60
60848;DHT22;46681;47.696;9.140;2023-02-28T11:25:37;9.30;41.60
60848;DHT22;46681;47.696;9.140;2023-02-28T11:28:28;9.30;41.60
60848;DHT22;46681;47.696;9.140;2023-02-28T11:36:25;9.30;41.50
60848;DHT22;46681;47.696;9.140;2023-02-28T11:39:13;9.30;41.50
60848;DHT22;46681;47.696;9.140;2023-02-28T11:42:18;9.30;41.50
60848;DHT22;46681;47.696;9.140;2023-02-28T11:48:27;9.30;41.50
60848;DHT22;46681;47.696;9.140;2023-02-28T11:53:59;9.40;41.60
60848;DHT22;46681;47.696;9.140;2023-02-28T11:57:09;9.40;41.50
60848;DHT22;46681;47.696;9.140;2023-02-28T12:00:00;9.40;41.50
60848;DHT22;46681;47.696;9.140;2023-02-28T12:05:36;9.40;41.50
60848;DHT22;46681;47.696;9.140;2023-02-28T12:11:33;9.40;41.50
60848;DHT22;46681;47.696;9.140;2023-02-28T12:29:42;9.50;41.50
60848;DHT22;46681;47.696;9.140;2023-02-28T12:32:35;9.60;41.50
60848;DHT22;46681;47.696;9.140;2023-02-28T12:34:49;9.60;41.60
60848;DHT22;46681;47.696;9.140;2023-02-28T12:40:25;9.60;41.50
60848;DHT22;46681;47.696;9.140;2023-02-28T12:43:08;9.60;41.50
60848;DHT22;46681;47.696;9.140;2023-02-28T12:48:48;9.60;41.50
60848;DHT22;46681;47.696;9.140;2023-02-28T12:51:24;9.60;41.50
60848;DHT22;46681;47.696;9.140;2023-02-28T12:57:22;9.70;41.60
60848;DHT22;46681;47.696;9.140;2023-02-28T13:00:13;9.60;41.50
60848;DHT22;46681;47.696;9.140;2023-02-28T13:11:30;9.60;41.50
60848;DHT22;46681;47.696;9.140;2023-02-28T13:17:03;9.60;41.60
60848;DHT22;46681;47.696;9.140;2023-02-28T13:19:43;9.60;41.50
60848;DHT22;46681;47.696;9.140;2023-02-28T13:25:01;9.60;41.50
60848;DHT22;46681;47.696;9.140;2023-02-28T13:27:40;9.70;41.60
60848;DHT22;46681;47.696;9.140;2023-02-28T13:34:14;9.70;41.50
60848;DHT22;46681;47.696;9.140;2023-02-28T13:37:02;9.70;41.60
60848;DHT22;46681;47.696;9.140;2023-02-28T13:42:33;9.60;41.50
60848;DHT22;46681;47.696;9.140;2023-02-28T13:48:02;9.70;42.20
60848;DHT22;46681;47.696;9.140;2023-02-28T13:50:34;9.70;42.00
60848;DHT22;46681;47.696;9.140;2023-02-28T13:53:29;9.70;41.90
60848;DHT22;46681;47.696;9.140;2023-02-28T13:58:54;9.70;41.80
60848;DHT22;46681;47.696;9.140;2023-02-28T14:07:32;9.70;41.80
60848;DHT22;46681;47.696;9.140;2023-02-28T14:10:31;9.70;41.80
60848;DHT22;46681;47.696;9.140;2023-02-28T14:18:18;9.60;41.70
60848;DHT22;46681;47.696;9.140;2023-02-28T14:20:47;9.60;41.80
60848;DHT22;46681;47.696;9.140;2023-02-28T14:32:23;9.60;41.80
60848;DHT22;46681;47.696;9.140;2023-02-28T14:37:55;9.60;41.80
60848;DHT22;46681;47.696;9.140;2023-02-28T14:40:33;9.50;42.20
60848;DHT22;46681;47.696;9.140;2023-02-28T14:43:22;9.50;41.80
60848;DHT22;46681;47.696;9.140;2023-02-28T14:45:57;9.50;41.80
60848;DHT22;46681;47.696;9.140;2023-02-28T14:48:25;9.50;41.80
60848;DHT22;46681;47.696;9.140;2023-02-28T14:50:59;9.50;41.80
60848;DHT22;46681;47.696;9.140;2023-02-28T14:53:37;9.50;41.80
60848;DHT22;46681;47.696;9.140;2023-02-28T14:56:03;9.50;41.80
60848;DHT22;46681;47.696;9.140;2023-02-28T14:58:38;9.50;41.80
60848;DHT22;46681;47.696;9.140;2023-02-28T15:01:12;9.50;41.80
60848;DHT22;46681;47.696;9.140;2023-02-28T15:03:46;9.50;41.80
60848;DHT22;46681;47.696;9.140;2023-02-28T15:06:16;9.50;41.80
60848;DHT22;46681;47.696;9.140;2023-02-28T15:08:47;9.50;42.20
60848;DHT22;46681;47.696;9.140;2023-02-28T15:11:19;9.50;41.70
60848;DHT22;46681;47.696;9.140;2023-02-28T15:13:55;9.60;41.60
60848;DHT22;46681;47.696;9.140;2023-02-28T15:16:37;9.60;41.70
60848;DHT22;46681;47.696;9.140;2023-02-28T15:19:28;9.50;41.60
60848;DHT22;46681;47.696;9.140;2023-02-28T15:22:06;9.60;41.60
60848;DHT22;46681;47.696;9.140;2023-02-28T15:24:46;9.60;41.60
60848;DHT22;46681;47.696;9.140;2023-02-28T15:27:29;9.60;41.50
60848;DHT22;46681;47.696;9.140;2023-02-28T15:30:13;9.60;41.50
60848;DHT22;46681;47.696;9.140;2023-02-28T15:32:45;9.60;41.50
60848;DHT22;46681;47.696;9.140;2023-02-28T15:35:30;9.60;41.20
60848;DHT22;46681;47.696;9.140;2023-02-28T15:38:22;9.60;41.50
60848;DHT22;46681;47.696;9.140;2023-02-28T15:41:03;9.60;41.50
60848;DHT22;46681;47.696;9.140;2023-02-28T15:43:39;9.60;41.60
60848;DHT22;46681;47.696;9.140;2023-02-28T15:46:15;9.60;41.50
60848;DHT22;46681;47.696;9.140;2023-02-28T15:49:02;9.60;41.60
60848;DHT22;46681;47.696;9.140;2023-02-28T15:51:44;9.60;41.60
60848;DHT22;46681;47.696;9.140;2023-02-28T15:54:18;9.60;41.60
60848;DHT22;46681;47.696;9.140;2023-02-28T15:56:51;9.50;41.60
60848;DHT22;46681;47.696;9.140;2023-02-28T15:59:27;9.50;41.60
60848;DHT22;46681;47.696;9.140;2023-02-28T16:07:41;9.50;41.70
60848;DHT22;46681;47.696;9.140;2023-02-28T16:10:16;9.50;41.70
60848;DHT22;46681;47.696;9.140;2023-02-28T16:12:49;9.50;41.70
60848;DHT22;46681;47.696;9.140;2023-02-28T16:15:21;9.50;41.80
60848;DHT22;46681;47.696;9.140;2023-02-28T16:17:56;9.50;41.80
60848;DHT22;46681;47.696;9.140;2023-02-28T16:20:48;9.40;41.70
60848;DHT22;46681;47.696;9.140;2023-02-28T16:23:15;9.40;41.80
60848;DHT22;46681;47.696;9.140;2023-02-28T16:25:52;9.40;41.80
60848;DHT22;46681;47.696;9.140;2023-02-28T16:28:30;9.40;41.80
60848;DHT22;46681;47.696;9.140;2023-02-28T16:31:06;9.30;41.70
60848;DHT22;46681;47.696;9.140;2023-02-28T16:33:35;9.30;41.70
60848;DHT22;46681;47.696;9.140;2023-02-28T16:36:05;9.30;41.70
60848;DHT22;46681;47.696;9.140;2023-02-28T16:38:33;9.20;41.70
60848;DHT22;46681;47.696;9.140;2023-02-28T16:41:00;9.20;41.80
60848;DHT22;46681;47.696;9.140;2023-02-28T16:43:33;9.20;41.70
60848;DHT22;46681;47.696;9.140;2023-02-28T16:46:20;9.20;41.80
60848;DHT22;46681;47.696;9.140;2023-02-28T16:48:50;9.20;41.80
60848;DHT22;46681;47.696;9.140;2023-02-28T16:51:18;9.10;41.80
60848;DHT22;46681;47.696;9.140;2023-02-28T16:53:45;9.10;41.80
60848;DHT22;46681;47.696;9.140;2023-02-28T16:56:35;9.10;41.80
60848;DHT22;46681;47.696;9.140;2023-02-28T16:59:09;9.00;41.80
60848;DHT22;46681;47.696;9.140;2023-02-28T17:01:38;9.00;41.80
60848;DHT22;46681;47.696;9.140;2023-02-28T17:04:05;8.90;41.80
60848;DHT22;46681;47.696;9.140;2023-02-28T17:06:31;8.90;41.80
60848;DHT22;46681;47.696;9.140;2023-02-28T17:09:22;8.90;41.80
60848;DHT22;46681;47.696;9.140;2023-02-28T17:11:56;8.80;41.80
60848;DHT22;46681;47.696;9.140;2023-02-28T17:14:21;8.80;41.90
60848;DHT22;46681;47.696;9.140;2023-02-28T17:16:49;8.70;41.90
60848;DHT22;46681;47.696;9.140;2023-02-28T17:19:19;8.70;41.90
60848;DHT22;46681;47.696;9.140;2023-02-28T17:21:55;8.70;41.90
60848;DHT22;46681;47.696;9.140;2023-02-28T17:24:26;8.60;41.90
60848;DHT22;46681;47.696;9.140;2023-02-28T17:26:52;8.60;41.90
60848;DHT22;46681;47.696;9.140;2023-02-28T17:29:23;8.60;42.00
60848;DHT22;46681;47.696;9.140;2023-02-28T17:31:49;8.60;42.40
60848;DHT22;46681;47.696;9.140;2023-02-28T17:34:16;8.60;42.50
60848;DHT22;46681;47.696;9.140;2023-02-28T17:36:51;8.50;42.40
60848;DHT22;46681;47.696;9.140;2023-02-28T17:39:19;8.50;42.20
60848;DHT22;46681;47.696;9.140;2023-02-28T17:44:43;8.40;42.10
60848;DHT22;46681;47.696;9.140;2023-02-28T17:47:11;8.40;42.10
60848;DHT22;46681;47.696;9.140;2023-02-28T17:49:40;8.40;42.10
60848;DHT22;46681;47.696;9.140;2023-02-28T17:52:09;8.40;42.20
60848;DHT22;46681;47.696;9.140;2023-02-28T17:54:37;8.30;42.00
60848;DHT22;46681;47.696;9.140;2023-02-28T17:57:03;8.30;42.20
60848;DHT22;46681;47.696;9.140;2023-02-28T17:59:29;8.30;42.10
60848;DHT22;46681;47.696;9.140;2023-02-28T18:01:54;8.30;42.10
60848;DHT22;46681;47.696;9.140;2023-02-28T18:04:20;8.20;42.10
60848;DHT22;46681;47.696;9.140;2023-02-28T18:06:47;8.20;42.10
60848;DHT22;46681;47.696;9.140;2023-02-28T18:09:21;8.20;42.10
60848;DHT22;46681;47.696;9.140;2023-02-28T18:11:53;8.20;42.10
60848;DHT22;46681;47.696;9.140;2023-02-28T18:14:23;8.20;42.10
60848;DHT22;46681;47.696;9.140;2023-02-28T18:16:50;8.20;42.10
60848;DHT22;46681;47.696;9.140;2023-02-28T18:19:18;8.20;42.20
60848;DHT22;46681;47.696;9.140;2023-02-28T18:21:51;8.20;42.20
60848;DHT22;46681;47.696;9.140;2023-02-28T18:24:21;8.10;42.50
60848;DHT22;46681;47.696;9.140;2023-02-28T18:26:49;8.10;42.10
60848;DHT22;46681;47.696;9.140;2023-02-28T18:29:39;8.10;42.20
60848;DHT22;46681;47.696;9.140;2023-02-28T18:32:06;8.10;42.20
60848;DHT22;46681;47.696;9.140;2023-02-28T18:34:44;8.10;42.10
60848;DHT22;46681;47.696;9.140;2023-02-28T18:37:12;8.10;42.20
60848;DHT22;46681;47.696;9.140;2023-02-28T18:39:38;8.00;42.20
60848;DHT22;46681;47.696;9.140;2023-02-28T18:42:03;8.00;42.20
60848;DHT22;46681;47.696;9.140;2023-02-28T18:44:29;8.00;42.10
60848;DHT22;46681;47.696;9.140;2023-02-28T18:47:07;8.10;42.60
60848;DHT22;46681;47.696;9.140;2023-02-28T18:49:32;8.00;42.30
60848;DHT22;46681;47.696;9.140;2023-02-28T18:52:01;8.00;42.20
60848;DHT22;46681;47.696;9.140;2023-02-28T18:54:27;8.00;42.30
60848;DHT22;46681;47.696;9.140;2023-02-28T18:56:53;8.00;42.20
60848;DHT22;46681;47.696;9.140;2023-02-28T18:59:22;8.00;42.30
60848;DHT22;46681;47.696;9.140;2023-02-28T19:01:48;7.90;42.20
60848;DHT22;46681;47.696;9.140;2023-02-28T19:04:15;7.90;42.20
60848;DHT22;46681;47.696;9.140;2023-02-28T19:06:41;7.90;42.20